• Join FlightAware (Why Join?)
  • Login
  • US Flag 
06:17AM EDT


 

Airport Tracker/Info


-or-


 

Live Flight TrackerFlight Track Log ✈ N654TR ✈ 09-Jan-2014 ✈ KGMU - KJQF

Flight Track Log - Related Links

Times and Time Zones

All times are in EST time to prevent confusion due to time zone crossing. See the N654TR flight status page for this flight to view local times or setup timezone preferences in your user account.

Time Position Orientation Groundspeed Altitude Reporting Facility
EST Latitude Longitude Course Direction KTS MPH feet Rate Location/Type
01:29PM 34.9108 -82.1506 69° East  Level FlightAware Approximate
01:30PM 34.9212 -82.1173 69° East  Level FlightAware Approximate
01:31PM 34.9316 -82.0841 69° East  Level FlightAware Approximate
01:32PM 34.9421 -82.0508 69° East  Level FlightAware Approximate
01:33PM 34.9525 -82.0175 69° East  Level FlightAware Approximate
01:34PM 34.9629 -81.9842 69° East  Level FlightAware Approximate
01:34PM 34.8867 -81.9397 68° East 156 180 5,000  Level Atlanta Center
01:35PM 34.9733 -81.9509 69° East  Level FlightAware Approximate
01:35PM 34.9067 -81.8883 65° Northeast 153 176 5,000  Level Atlanta Center
01:36PM 34.9837 -81.9176 69° East  Level FlightAware Approximate
01:36PM 34.9286 -81.8347 63° Northeast 153 176 5,000  Level Atlanta Center
01:37PM 34.9940 -81.8843 69° East  Level FlightAware Approximate
01:37PM 34.9467 -81.7911 63° Northeast 154 177 5,000  Level Atlanta Center
01:38PM 35.0044 -81.8510 69° East  Level FlightAware Approximate
01:38PM 34.9667 -81.7450 62° Northeast 159 183 5,000  Level Atlanta Center
01:39PM 35.0157 -81.8180 68° East  Level Estimated
01:39PM 34.9925 -81.6833 63° Northeast 162 186 5,000  Level Atlanta Center
01:40PM 35.0064 -81.6425 67° East 164 189 5,000  Level Atlanta Center
01:41PM 35.0306 -81.5936 59° Northeast 165 190 5,000  Level Atlanta Center
01:42PM 35.0483 -81.5447 66° East 165 190 5,000  Level Atlanta Center
01:43PM 35.0700 -81.4908 64° Northeast 165 190 5,000  Level Atlanta Center
01:44PM 35.0881 -81.4472 63° Northeast 165 190 5,000  Level Atlanta Center
01:45PM 35.1117 -81.3881 64° Northeast 163 188 5,000  Level Atlanta Center
01:46PM 35.1314 -81.3392 64° Northeast 160 184 5,000  Level Atlanta Center
01:47PM 35.1514 -81.2928 62° Northeast 160 184 5,000  Level Atlanta Center
01:48PM 35.1750 -81.2361 63° Northeast 161 185 5,000  Level Atlanta Center
01:49PM 35.1889 -81.1950 68° East 162 186 5,000  Level Atlanta Center
01:50PM 35.1956 -81.1311 83° East 162 186 5,000  Level Atlanta Center
01:51PM 35.2028 -81.0803 80° East 161 185 5,000  Level Atlanta Center
01:52PM 35.2097 -81.0264 81° East 159 183 5,000  Level Atlanta Center
01:53PM 35.2147 -80.9703 84° East 156 180 5,000  Level Atlanta Center
01:54PM 35.2300 -80.9214 69° East 170 196 5,000 -120 Level Atlanta Center
01:55PM 35.2622 -80.8669 54° Northeast 159 183 4,800 -420 Descending Atlanta Center
01:56PM 35.2903 -80.8250 51° Northeast 174 200 4,200 -840 Descending Atlanta Center
01:57PM 35.3244 -80.7806 47° Northeast 184 212 3,200 -900 Descending Atlanta Center
01:58PM 35.3700 -80.7608 19° North 174 200 2,400 -660 Descending Atlanta Center
01:59PM 35.4133 -80.7464 15° North 151 174 1,900 -540 Descending Atlanta Center
02:00PM 35.4125 -80.7183 92° East 74 85 1,400 -420 Descending Atlanta Center
02:01PM 35.4078 -80.6983 106° East 74 85 1,200 -240 Descending Atlanta Center